Portada
METAR-TAF:

METAR-TAF

Aeroports :

Blytheville Municipal Airport

Blytheville, Arkansas, Estats Units d'Amèrica

latitud: 35-56-20N, longitud: 089-49-57W, altitud: 78 m

Observació

L'informe es va fer fa 9 hores i 3 minuts, a les 21:53 UTC
Vent 4 kt del Sud/Sud-Est
Temperatura 33°C
Humitat 36%
Pressió 1020 hPa
Visibilitat: 16.1 km
Núvols disperses a una alçada de 7000 ft

METAR: KHKA 212153Z AUTO 16004KT 10SM SCT070 33/16 A3012 RMK AO2 SLP197 T03280161 $

Hora: 01:56 (06:56 UTC)


TAF: manca

Observacions i pronòstics meteorològics de més de 4000 aeroports (METAR i TAF).

Les estacions disponibles són els punts grocs i vermells al mapa.

Posi el ratolí al punt desitjat per veure el nom de l'estació.

Feu clic per veure les observacions i els pronòstics meteorològics.

Per canviar el mapa: feu clic els botons verds amb una creu de color negre per apropar; al botó verd amb un guió per allunyar la imatge; o en les fletxes verdes per a mapes adjacents.


METAR-TAF: